Terminal Aerodrome Forecast
Issued by NWS

Current Version | Previous Version | Graphics & Text | Print | Product List | Glossary On
Versions: 1 2 3 4 5 6 7 8 9 10 11 12 13 14 15 16 17 18 19 20
000
FTUS41 KRLX 280241 AAA
TAFCKB
TAF AMD
KCKB 280241Z 2803/2824 00000KT P6SM SCT050
     FM280700 00000KT 3SM BR SCT250
     FM280900 00000KT 2SM BR SCT250
     FM281000 00000KT 1/4SM FG VV001
     FM281200 00000KT 2SM BR SCT003
     FM281300 00000KT P6SM FEW050 SCT250=

USA.gov is the U.S. government's official web portal to all federal, state and local government web resources and services.